createdAt,value
2022-12-03T00:06:14.917Z,1.3
2022-12-03T00:16:15.194Z,1.3
2022-12-03T00:26:15.873Z,1.3
2022-12-03T00:36:16.740Z,1.3
2022-12-03T00:56:17.530Z,1.3
2022-12-03T01:06:17.613Z,1.4
2022-12-03T01:16:18.539Z,1.4
2022-12-03T01:26:18.928Z,1.4
2022-12-03T01:36:19.937Z,1.4
2022-12-03T01:46:20.573Z,1.4
2022-12-03T01:56:20.722Z,1.4
2022-12-03T02:06:20.931Z,1.4
2022-12-03T02:16:21.662Z,1.3
2022-12-03T02:26:21.906Z,1.3
2022-12-03T02:36:22.807Z,1.3
2022-12-03T02:46:23.268Z,1.3
2022-12-03T02:56:23.341Z,1.2
2022-12-03T03:06:24.048Z,1.1
2022-12-03T03:16:24.379Z,1.1
2022-12-03T03:26:25.247Z,1.1
2022-12-03T03:36:25.996Z,1.1
2022-12-03T03:46:26.568Z,1.1
2022-12-03T03:56:26.905Z,1.1
2022-12-03T04:16:28.044Z,1
2022-12-03T04:26:28.648Z,1
2022-12-03T04:36:28.905Z,0.9
2022-12-03T04:56:30.062Z,0.9
2022-12-03T05:06:31.004Z,0.9
2022-12-03T05:16:31.665Z,0.9
2022-12-03T05:26:32.015Z,0.9
2022-12-03T05:36:32.171Z,0.9
2022-12-03T05:46:33.171Z,0.8
2022-12-03T05:56:33.737Z,0.8
2022-12-03T06:06:34.318Z,0.8
2022-12-03T06:16:34.783Z,0.8
2022-12-03T06:26:35.679Z,0.8
2022-12-03T06:36:36.053Z,0.7
2022-12-03T06:46:36.857Z,0.6
2022-12-03T07:06:37.404Z,0.5
2022-12-03T07:16:37.795Z,0.5
2022-12-03T07:26:38.553Z,0.5
2022-12-03T07:46:40.429Z,0.6
2022-12-03T07:56:41.015Z,0.7
2022-12-03T08:06:41.831Z,0.7
2022-12-03T08:16:42.482Z,0.7
2022-12-03T08:36:43.030Z,0.8
2022-12-03T08:46:43.645Z,0.8
2022-12-03T08:56:43.872Z,0.8
2022-12-03T09:06:44.810Z,0.7
2022-12-03T09:16:45.045Z,0.8
2022-12-03T09:26:45.415Z,0.8
2022-12-03T09:36:46.447Z,0.8
2022-12-03T09:46:47.057Z,0.9
2022-12-03T09:56:47.353Z,0.9
2022-12-03T10:06:48.011Z,0.9
2022-12-03T10:16:48.425Z,1.1
2022-12-03T10:26:49.088Z,1.1
2022-12-03T10:36:49.730Z,1.1
2022-12-03T10:46:50.719Z,1.1
2022-12-03T10:56:51.049Z,1.1
2022-12-03T11:06:52.012Z,1.3
2022-12-03T11:16:52.115Z,1.2
2022-12-03T11:26:52.553Z,1.3
2022-12-03T11:37:01.357Z,1.3
2022-12-03T11:46:53.761Z,1.2
2022-12-03T11:56:54.476Z,1.1
2022-12-03T12:06:55.212Z,1.3
2022-12-03T12:16:55.917Z,1.3
2022-12-03T12:26:56.477Z,1.3
2022-12-03T12:36:57.417Z,1.3
2022-12-03T12:46:57.804Z,1.3
2022-12-03T12:56:57.919Z,1.3
2022-12-03T13:06:58.633Z,1.3
2022-12-03T13:16:58.936Z,1.3
2022-12-03T13:26:59.066Z,1.3
2022-12-03T13:36:59.845Z,1.3
2022-12-03T13:47:00.434Z,1.3
2022-12-03T13:57:01.215Z,1.3
2022-12-03T14:07:02.052Z,1.3
2022-12-03T14:17:02.366Z,1.2
2022-12-03T14:37:03.396Z,1.2
2022-12-03T14:47:03.794Z,1.2
2022-12-03T14:57:04.081Z,1.2
2022-12-03T15:07:04.806Z,1.1
2022-12-03T15:17:05.207Z,1
2022-12-03T15:27:05.836Z,1
2022-12-03T15:37:06.843Z,1
2022-12-03T15:47:07.844Z,0.9
2022-12-03T15:57:08.737Z,0.9
2022-12-03T16:07:09.557Z,0.8
2022-12-03T16:17:10.154Z,0.8
2022-12-03T16:27:10.415Z,0.8
2022-12-03T16:27:15.691Z,0.8
2022-12-03T16:37:16.189Z,0.8
2022-12-03T16:47:16.715Z,0.8
2022-12-03T16:57:16.864Z,0.8
2022-12-03T17:07:17.365Z,0.8
2022-12-03T17:17:17.809Z,0.7
2022-12-03T17:37:18.795Z,0.7
2022-12-03T17:47:19.814Z,0.7
2022-12-03T17:57:20.079Z,0.6
2022-12-03T18:07:20.499Z,0.6
2022-12-03T18:17:21.375Z,0.6
2022-12-03T18:27:22.053Z,0.6
2022-12-03T18:37:22.900Z,0.6
2022-12-03T18:47:23.060Z,0.6
2022-12-03T18:57:23.884Z,0.5
2022-12-03T19:07:23.992Z,0.5
2022-12-03T19:17:24.463Z,0.5
2022-12-03T19:27:25.275Z,0.5
2022-12-03T19:37:25.868Z,0.4
2022-12-03T19:47:26.467Z,0.4
2022-12-03T19:57:27.381Z,0.4
2022-12-03T20:07:27.840Z,0.4
2022-12-03T20:17:28.658Z,0.4
2022-12-03T20:27:29.375Z,0.4
2022-12-03T20:37:30.212Z,0.4
2022-12-03T20:47:30.500Z,0.4
2022-12-03T20:57:30.890Z,0.4
2022-12-03T21:07:31.831Z,0.4
2022-12-03T21:17:32.551Z,0.4
2022-12-03T21:27:32.884Z,0.4
2022-12-03T21:37:33.020Z,0.3
2022-12-03T21:47:37.106Z,0.4
2022-12-03T21:57:33.569Z,0.4
2022-12-03T22:07:33.829Z,0.4
2022-12-03T22:27:34.922Z,0.4
2022-12-03T22:37:35.637Z,0.3
2022-12-03T22:47:35.751Z,0.3
2022-12-03T23:07:37.176Z,0.4
2022-12-03T23:27:38.579Z,0.4
